Portada
METAR-TAF:

METAR-TAF

Aeropuertos :

Ghriss, Argelia

latitud: 35-12N, longitud: 000-08E, altitud: 514 m

Observación

El informe se hizo hace 25 minutos, a las 18:00 UTC
Viento 12 kt del norte-noroeste
Temperatura 23°C
Humedad 69%
Presión 1019 hPa
Visibilidad: 9000 m
Escasas nubes a una altura de 3000 ft
Cielo nuboso a una altura de 23300 ft

METAR: DAOV 231800Z 34012KT 9000 FEW030 BKN233 23/17 Q1019

Hora: 19:25 (18:25 UTC)

Pronóstico

El informe se hizo hace 1 hora y 25 minutos, a las 17:00 UTC
Pronóstico válido del 23 a las 18 UTC al 24 a las 03 UTC
Viento 10 kt del norte-noroeste
Visibilidad: 9000 m
Escasas nubes a una altura de 3000 ft, Cumulonimbus.
Evolucionando progresivamente
del 23 a las 22 UTC al 24 a las 01 UTC
Viento 2 kt con dirección variable
Visibilidad: 7000 m
Nubes dispersas a una altura de 1300 ft
Nubes dispersas a una altura de 2000 ft

TAF: DAOV 231700Z 2318/2403 34010KT 9000 FEW030CB BECMG 2322/2401 VRB02KT 7000 SCT013 SCT020

Observaciones y pronósticos meteorológicos de más de 4000 aeropuertos (mensajes METAR y TAF).

Los puntos amarillos y rojos representan las estaciones disponibles.

Ponga el ratón en el punto deseado para ver el nombre de la estación.

Haga clic para ver las observaciones y los pronósticos meteorológicos.

Para cambiar el mapa : haga clic en los botones verdes con una cruz de color negro para hacer un zoom, en el botón verde con un guión para alejar o en las flechas verdes para mapas adyacentes.


METAR-TAF: